sensor_id;sensor_type;location;lat;lon;timestamp;P1;durP1;ratioP1;P2;durP2;ratioP2
74974;SDS011;68459;50.836;19.138;2023-03-23T00:00:47;15.32;;;8.00;;
74974;SDS011;68459;50.836;19.138;2023-03-23T00:03:52;13.05;;;7.10;;
74974;SDS011;68459;50.836;19.138;2023-03-23T00:06:58;14.10;;;7.82;;
74974;SDS011;68459;50.836;19.138;2023-03-23T00:10:02;16.23;;;8.23;;
74974;SDS011;68459;50.836;19.138;2023-03-23T00:13:05;13.60;;;7.90;;
74974;SDS011;68459;50.836;19.138;2023-03-23T00:16:09;12.90;;;7.57;;
74974;SDS011;68459;50.836;19.138;2023-03-23T00:19:19;14.77;;;7.82;;
74974;SDS011;68459;50.836;19.138;2023-03-23T00:22:22;14.60;;;7.60;;
74974;SDS011;68459;50.836;19.138;2023-03-23T00:25:25;13.38;;;7.97;;
74974;SDS011;68459;50.836;19.138;2023-03-23T00:28:28;11.65;;;7.40;;
74974;SDS011;68459;50.836;19.138;2023-03-23T00:31:31;12.30;;;7.80;;
74974;SDS011;68459;50.836;19.138;2023-03-23T00:34:38;13.32;;;7.80;;
74974;SDS011;68459;50.836;19.138;2023-03-23T00:37:43;14.98;;;7.78;;
74974;SDS011;68459;50.836;19.138;2023-03-23T00:40:46;13.88;;;7.40;;
74974;SDS011;68459;50.836;19.138;2023-03-23T00:43:49;16.77;;;7.37;;
74974;SDS011;68459;50.836;19.138;2023-03-23T00:46:53;12.93;;;7.82;;
74974;SDS011;68459;50.836;19.138;2023-03-23T00:49:58;12.18;;;7.78;;
74974;SDS011;68459;50.836;19.138;2023-03-23T00:53:01;13.27;;;7.83;;
74974;SDS011;68459;50.836;19.138;2023-03-23T00:56:04;11.35;;;6.72;;
74974;SDS011;68459;50.836;19.138;2023-03-23T00:59:09;16.48;;;7.80;;
74974;SDS011;68459;50.836;19.138;2023-03-23T01:02:12;13.25;;;7.50;;
74974;SDS011;68459;50.836;19.138;2023-03-23T01:05:17;14.95;;;7.10;;
74974;SDS011;68459;50.836;19.138;2023-03-23T01:08:20;11.65;;;6.75;;
74974;SDS011;68459;50.836;19.138;2023-03-23T01:11:24;10.63;;;6.38;;
74974;SDS011;68459;50.836;19.138;2023-03-23T01:14:27;12.87;;;6.93;;
74974;SDS011;68459;50.836;19.138;2023-03-23T01:17:30;13.48;;;7.28;;
74974;SDS011;68459;50.836;19.138;2023-03-23T01:20:34;11.77;;;7.30;;
74974;SDS011;68459;50.836;19.138;2023-03-23T01:23:39;13.20;;;7.00;;
74974;SDS011;68459;50.836;19.138;2023-03-23T01:26:41;13.27;;;7.70;;
74974;SDS011;68459;50.836;19.138;2023-03-23T01:29:45;14.02;;;6.97;;
74974;SDS011;68459;50.836;19.138;2023-03-23T01:32:47;10.80;;;6.78;;
74974;SDS011;68459;50.836;19.138;2023-03-23T01:35:52;11.27;;;7.20;;
74974;SDS011;68459;50.836;19.138;2023-03-23T01:38:55;13.32;;;6.60;;
74974;SDS011;68459;50.836;19.138;2023-03-23T01:41:59;11.23;;;6.82;;
74974;SDS011;68459;50.836;19.138;2023-03-23T01:48:37;12.10;;;6.40;;
74974;SDS011;68459;50.836;19.138;2023-03-23T01:51:43;10.48;;;6.95;;
74974;SDS011;68459;50.836;19.138;2023-03-23T01:54:52;10.70;;;6.37;;
74974;SDS011;68459;50.836;19.138;2023-03-23T01:57:59;11.82;;;7.10;;
74974;SDS011;68459;50.836;19.138;2023-03-23T02:01:03;10.85;;;6.43;;
74974;SDS011;68459;50.836;19.138;2023-03-23T02:04:12;10.45;;;6.70;;
74974;SDS011;68459;50.836;19.138;2023-03-23T02:07:20;11.90;;;7.00;;
74974;SDS011;68459;50.836;19.138;2023-03-23T02:10:26;12.75;;;6.88;;
74974;SDS011;68459;50.836;19.138;2023-03-23T02:13:29;13.00;;;6.70;;
74974;SDS011;68459;50.836;19.138;2023-03-23T02:16:33;10.53;;;6.50;;
74974;SDS011;68459;50.836;19.138;2023-03-23T02:19:55;11.27;;;6.47;;
74974;SDS011;68459;50.836;19.138;2023-03-23T02:23:42;11.80;;;6.20;;
74974;SDS011;68459;50.836;19.138;2023-03-23T02:27:12;9.97;;;6.53;;
74974;SDS011;68459;50.836;19.138;2023-03-23T02:30:35;9.48;;;6.60;;
74974;SDS011;68459;50.836;19.138;2023-03-23T02:33:55;11.77;;;6.75;;
74974;SDS011;68459;50.836;19.138;2023-03-23T02:37:03;10.70;;;6.45;;
74974;SDS011;68459;50.836;19.138;2023-03-23T02:40:17;11.52;;;6.28;;
74974;SDS011;68459;50.836;19.138;2023-03-23T02:43:27;14.05;;;6.55;;
74974;SDS011;68459;50.836;19.138;2023-03-23T02:46:39;13.98;;;6.93;;
74974;SDS011;68459;50.836;19.138;2023-03-23T02:49:46;11.93;;;6.23;;
74974;SDS011;68459;50.836;19.138;2023-03-23T02:52:55;13.70;;;6.30;;
74974;SDS011;68459;50.836;19.138;2023-03-23T02:56:00;11.60;;;6.45;;
74974;SDS011;68459;50.836;19.138;2023-03-23T02:59:09;12.10;;;6.47;;
74974;SDS011;68459;50.836;19.138;2023-03-23T03:02:12;11.48;;;6.35;;
74974;SDS011;68459;50.836;19.138;2023-03-23T03:05:26;9.63;;;6.68;;
74974;SDS011;68459;50.836;19.138;2023-03-23T03:08:43;8.65;;;5.88;;
74974;SDS011;68459;50.836;19.138;2023-03-23T03:11:58;10.45;;;6.13;;
74974;SDS011;68459;50.836;19.138;2023-03-23T03:15:12;13.15;;;6.40;;
74974;SDS011;68459;50.836;19.138;2023-03-23T03:18:27;14.90;;;6.65;;
74974;SDS011;68459;50.836;19.138;2023-03-23T03:21:37;10.67;;;6.93;;
74974;SDS011;68459;50.836;19.138;2023-03-23T03:24:45;11.35;;;6.57;;
74974;SDS011;68459;50.836;19.138;2023-03-23T03:27:49;11.80;;;6.65;;
74974;SDS011;68459;50.836;19.138;2023-03-23T03:31:06;10.73;;;6.60;;
74974;SDS011;68459;50.836;19.138;2023-03-23T03:34:12;12.45;;;6.53;;
74974;SDS011;68459;50.836;19.138;2023-03-23T03:37:23;9.90;;;6.30;;
74974;SDS011;68459;50.836;19.138;2023-03-23T03:40:27;9.95;;;5.63;;
74974;SDS011;68459;50.836;19.138;2023-03-23T03:43:30;8.15;;;5.72;;
74974;SDS011;68459;50.836;19.138;2023-03-23T03:46:33;10.82;;;6.18;;
74974;SDS011;68459;50.836;19.138;2023-03-23T03:49:45;10.98;;;6.22;;
74974;SDS011;68459;50.836;19.138;2023-03-23T03:52:55;10.27;;;5.87;;
74974;SDS011;68459;50.836;19.138;2023-03-23T03:56:03;8.95;;;5.55;;
74974;SDS011;68459;50.836;19.138;2023-03-23T03:59:14;8.98;;;5.50;;
74974;SDS011;68459;50.836;19.138;2023-03-23T04:02:35;10.73;;;5.20;;
74974;SDS011;68459;50.836;19.138;2023-03-23T04:05:38;12.15;;;5.38;;
74974;SDS011;68459;50.836;19.138;2023-03-23T04:08:44;10.18;;;5.18;;
74974;SDS011;68459;50.836;19.138;2023-03-23T04:11:47;10.75;;;6.00;;
74974;SDS011;68459;50.836;19.138;2023-03-23T04:15:10;13.15;;;7.20;;
74974;SDS011;68459;50.836;19.138;2023-03-23T04:18:13;10.48;;;6.13;;
74974;SDS011;68459;50.836;19.138;2023-03-23T04:21:21;13.48;;;7.18;;
74974;SDS011;68459;50.836;19.138;2023-03-23T04:24:28;14.43;;;7.67;;
74974;SDS011;68459;50.836;19.138;2023-03-23T04:27:33;14.55;;;8.48;;
74974;SDS011;68459;50.836;19.138;2023-03-23T04:30:38;14.82;;;7.70;;
74974;SDS011;68459;50.836;19.138;2023-03-23T04:33:46;14.77;;;7.67;;
74974;SDS011;68459;50.836;19.138;2023-03-23T04:36:50;13.85;;;8.05;;
74974;SDS011;68459;50.836;19.138;2023-03-23T04:39:59;14.50;;;7.68;;
74974;SDS011;68459;50.836;19.138;2023-03-23T04:43:08;12.63;;;7.35;;
74974;SDS011;68459;50.836;19.138;2023-03-23T04:46:30;13.98;;;6.78;;
74974;SDS011;68459;50.836;19.138;2023-03-23T04:49:40;9.75;;;6.18;;
74974;SDS011;68459;50.836;19.138;2023-03-23T04:52:53;12.80;;;6.35;;
74974;SDS011;68459;50.836;19.138;2023-03-23T04:55:59;9.47;;;6.13;;
74974;SDS011;68459;50.836;19.138;2023-03-23T04:59:08;14.52;;;6.60;;
74974;SDS011;68459;50.836;19.138;2023-03-23T05:02:34;12.15;;;6.00;;
74974;SDS011;68459;50.836;19.138;2023-03-23T05:05:38;13.20;;;6.80;;
74974;SDS011;68459;50.836;19.138;2023-03-23T05:08:42;10.02;;;6.35;;
74974;SDS011;68459;50.836;19.138;2023-03-23T05:11:47;11.02;;;7.07;;
74974;SDS011;68459;50.836;19.138;2023-03-23T05:14:50;10.48;;;6.30;;
74974;SDS011;68459;50.836;19.138;2023-03-23T05:17:55;10.70;;;6.22;;
74974;SDS011;68459;50.836;19.138;2023-03-23T05:20:59;14.82;;;7.18;;
74974;SDS011;68459;50.836;19.138;2023-03-23T05:24:06;12.20;;;6.57;;
74974;SDS011;68459;50.836;19.138;2023-03-23T05:27:10;13.23;;;6.50;;
74974;SDS011;68459;50.836;19.138;2023-03-23T05:30:21;10.75;;;6.10;;
74974;SDS011;68459;50.836;19.138;2023-03-23T05:33:24;10.45;;;6.25;;
74974;SDS011;68459;50.836;19.138;2023-03-23T05:36:33;11.83;;;6.13;;
74974;SDS011;68459;50.836;19.138;2023-03-23T05:39:49;15.25;;;7.43;;
74974;SDS011;68459;50.836;19.138;2023-03-23T05:43:04;12.90;;;7.53;;
74974;SDS011;68459;50.836;19.138;2023-03-23T05:46:20;14.35;;;7.90;;
74974;SDS011;68459;50.836;19.138;2023-03-23T05:49:24;13.00;;;7.60;;
74974;SDS011;68459;50.836;19.138;2023-03-23T05:52:28;13.77;;;7.93;;
74974;SDS011;68459;50.836;19.138;2023-03-23T05:55:35;13.02;;;7.18;;
74974;SDS011;68459;50.836;19.138;2023-03-23T05:58:53;11.67;;;7.37;;
74974;SDS011;68459;50.836;19.138;2023-03-23T06:01:57;14.85;;;7.70;;
74974;SDS011;68459;50.836;19.138;2023-03-23T06:05:00;12.70;;;7.20;;
74974;SDS011;68459;50.836;19.138;2023-03-23T06:08:06;15.40;;;7.23;;
74974;SDS011;68459;50.836;19.138;2023-03-23T06:11:09;13.50;;;7.07;;
74974;SDS011;68459;50.836;19.138;2023-03-23T06:14:21;12.70;;;6.85;;
74974;SDS011;68459;50.836;19.138;2023-03-23T06:17:24;11.80;;;6.18;;
74974;SDS011;68459;50.836;19.138;2023-03-23T06:20:28;8.40;;;6.07;;
74974;SDS011;68459;50.836;19.138;2023-03-23T06:23:34;9.32;;;5.93;;
74974;SDS011;68459;50.836;19.138;2023-03-23T06:26:38;11.38;;;6.60;;
74974;SDS011;68459;50.836;19.138;2023-03-23T06:29:51;8.07;;;5.23;;
74974;SDS011;68459;50.836;19.138;2023-03-23T06:32:55;12.18;;;5.57;;
74974;SDS011;68459;50.836;19.138;2023-03-23T06:36:17;12.05;;;6.28;;
74974;SDS011;68459;50.836;19.138;2023-03-23T06:39:38;16.40;;;5.90;;
74974;SDS011;68459;50.836;19.138;2023-03-23T06:42:56;11.32;;;5.25;;
74974;SDS011;68459;50.836;19.138;2023-03-23T06:46:04;9.32;;;5.45;;
74974;SDS011;68459;50.836;19.138;2023-03-23T06:49:15;11.13;;;5.43;;
74974;SDS011;68459;50.836;19.138;2023-03-23T06:52:27;10.18;;;5.40;;
74974;SDS011;68459;50.836;19.138;2023-03-23T06:55:30;7.90;;;4.93;;
74974;SDS011;68459;50.836;19.138;2023-03-23T06:58:33;8.10;;;5.20;;
74974;SDS011;68459;50.836;19.138;2023-03-23T07:01:39;7.33;;;4.67;;
74974;SDS011;68459;50.836;19.138;2023-03-23T07:04:43;8.15;;;5.15;;
74974;SDS011;68459;50.836;19.138;2023-03-23T07:07:56;9.80;;;4.78;;
74974;SDS011;68459;50.836;19.138;2023-03-23T07:11:10;8.23;;;4.90;;
74974;SDS011;68459;50.836;19.138;2023-03-23T07:14:14;13.07;;;6.10;;
74974;SDS011;68459;50.836;19.138;2023-03-23T07:17:19;9.20;;;5.25;;
74974;SDS011;68459;50.836;19.138;2023-03-23T07:20:35;8.33;;;5.53;;
74974;SDS011;68459;50.836;19.138;2023-03-23T07:23:38;10.48;;;5.50;;
74974;SDS011;68459;50.836;19.138;2023-03-23T07:26:45;11.25;;;5.53;;
74974;SDS011;68459;50.836;19.138;2023-03-23T07:29:48;10.25;;;5.65;;
74974;SDS011;68459;50.836;19.138;2023-03-23T07:32:58;10.97;;;5.63;;
74974;SDS011;68459;50.836;19.138;2023-03-23T07:36:02;8.38;;;5.07;;
74974;SDS011;68459;50.836;19.138;2023-03-23T07:39:06;12.07;;;5.43;;
74974;SDS011;68459;50.836;19.138;2023-03-23T07:42:09;8.20;;;4.87;;
74974;SDS011;68459;50.836;19.138;2023-03-23T07:45:21;7.95;;;5.07;;
74974;SDS011;68459;50.836;19.138;2023-03-23T07:48:27;9.55;;;5.80;;
74974;SDS011;68459;50.836;19.138;2023-03-23T07:51:31;12.38;;;5.45;;
74974;SDS011;68459;50.836;19.138;2023-03-23T07:54:35;10.77;;;5.30;;
74974;SDS011;68459;50.836;19.138;2023-03-23T07:57:56;9.13;;;5.40;;
74974;SDS011;68459;50.836;19.138;2023-03-23T08:00:59;7.75;;;5.20;;
74974;SDS011;68459;50.836;19.138;2023-03-23T08:04:06;7.57;;;4.90;;
74974;SDS011;68459;50.836;19.138;2023-03-23T08:07:28;13.48;;;5.18;;
74974;SDS011;68459;50.836;19.138;2023-03-23T08:10:40;11.38;;;5.85;;
74974;SDS011;68459;50.836;19.138;2023-03-23T08:14:07;9.47;;;5.20;;
74974;SDS011;68459;50.836;19.138;2023-03-23T08:17:24;8.07;;;4.38;;
74974;SDS011;68459;50.836;19.138;2023-03-23T08:21:07;9.23;;;3.63;;
74974;SDS011;68459;50.836;19.138;2023-03-23T08:24:29;9.15;;;3.97;;
74974;SDS011;68459;50.836;19.138;2023-03-23T08:27:41;7.95;;;3.70;;
74974;SDS011;68459;50.836;19.138;2023-03-23T08:31:05;7.63;;;3.80;;
74974;SDS011;68459;50.836;19.138;2023-03-23T08:34:49;11.25;;;3.58;;
74974;SDS011;68459;50.836;19.138;2023-03-23T08:38:14;6.43;;;4.03;;
74974;SDS011;68459;50.836;19.138;2023-03-23T08:41:44;6.15;;;3.05;;
74974;SDS011;68459;50.836;19.138;2023-03-23T08:45:09;7.00;;;2.72;;
74974;SDS011;68459;50.836;19.138;2023-03-23T08:48:20;6.03;;;3.37;;
74974;SDS011;68459;50.836;19.138;2023-03-23T08:51:42;5.93;;;3.17;;
74974;SDS011;68459;50.836;19.138;2023-03-23T08:55:07;6.22;;;3.05;;
74974;SDS011;68459;50.836;19.138;2023-03-23T08:58:27;4.65;;;2.80;;
74974;SDS011;68459;50.836;19.138;2023-03-23T09:01:39;13.15;;;4.25;;
74974;SDS011;68459;50.836;19.138;2023-03-23T09:04:58;7.00;;;3.45;;
74974;SDS011;68459;50.836;19.138;2023-03-23T09:08:35;6.43;;;3.53;;
74974;SDS011;68459;50.836;19.138;2023-03-23T09:11:39;8.50;;;3.50;;
74974;SDS011;68459;50.836;19.138;2023-03-23T09:14:42;8.82;;;3.17;;
74974;SDS011;68459;50.836;19.138;2023-03-23T09:17:45;5.10;;;2.65;;
74974;SDS011;68459;50.836;19.138;2023-03-23T09:20:51;8.97;;;3.77;;
74974;SDS011;68459;50.836;19.138;2023-03-23T09:23:55;5.55;;;2.75;;
74974;SDS011;68459;50.836;19.138;2023-03-23T09:27:00;6.95;;;3.03;;
74974;SDS011;68459;50.836;19.138;2023-03-23T09:30:04;7.15;;;3.20;;
74974;SDS011;68459;50.836;19.138;2023-03-23T09:33:11;5.63;;;3.03;;
74974;SDS011;68459;50.836;19.138;2023-03-23T09:36:14;6.60;;;3.17;;
74974;SDS011;68459;50.836;19.138;2023-03-23T09:39:18;5.55;;;3.00;;
74974;SDS011;68459;50.836;19.138;2023-03-23T09:42:26;7.37;;;3.13;;
74974;SDS011;68459;50.836;19.138;2023-03-23T09:45:50;6.05;;;2.97;;
74974;SDS011;68459;50.836;19.138;2023-03-23T09:49:11;11.77;;;3.30;;
74974;SDS011;68459;50.836;19.138;2023-03-23T09:52:20;6.37;;;2.77;;
74974;SDS011;68459;50.836;19.138;2023-03-23T09:55:29;5.60;;;2.60;;
74974;SDS011;68459;50.836;19.138;2023-03-23T09:58:35;4.60;;;2.30;;
74974;SDS011;68459;50.836;19.138;2023-03-23T10:01:48;5.70;;;2.70;;
74974;SDS011;68459;50.836;19.138;2023-03-23T10:04:56;4.10;;;2.55;;
74974;SDS011;68459;50.836;19.138;2023-03-23T10:08:22;4.13;;;2.50;;
74974;SDS011;68459;50.836;19.138;2023-03-23T10:11:34;5.43;;;2.67;;
74974;SDS011;68459;50.836;19.138;2023-03-23T10:14:59;4.47;;;2.40;;
74974;SDS011;68459;50.836;19.138;2023-03-23T10:18:15;4.60;;;2.78;;
74974;SDS011;68459;50.836;19.138;2023-03-23T10:21:28;6.63;;;2.72;;
74974;SDS011;68459;50.836;19.138;2023-03-23T10:24:35;5.15;;;2.42;;
74974;SDS011;68459;50.836;19.138;2023-03-23T10:27:59;6.30;;;2.70;;
74974;SDS011;68459;50.836;19.138;2023-03-23T10:31:11;4.43;;;2.50;;
74974;SDS011;68459;50.836;19.138;2023-03-23T10:34:22;9.77;;;2.92;;
74974;SDS011;68459;50.836;19.138;2023-03-23T10:37:35;3.45;;;2.10;;
74974;SDS011;68459;50.836;19.138;2023-03-23T10:40:45;4.27;;;2.10;;
74974;SDS011;68459;50.836;19.138;2023-03-23T10:43:53;7.43;;;2.30;;
74974;SDS011;68459;50.836;19.138;2023-03-23T10:46:59;6.32;;;1.83;;
74974;SDS011;68459;50.836;19.138;2023-03-23T10:50:05;5.45;;;1.83;;
74974;SDS011;68459;50.836;19.138;2023-03-23T10:53:18;3.73;;;1.87;;
74974;SDS011;68459;50.836;19.138;2023-03-23T10:56:27;4.28;;;2.30;;
74974;SDS011;68459;50.836;19.138;2023-03-23T10:59:39;5.20;;;2.10;;
74974;SDS011;68459;50.836;19.138;2023-03-23T11:02:45;5.25;;;1.90;;
74974;SDS011;68459;50.836;19.138;2023-03-23T11:05:50;5.00;;;2.23;;
74974;SDS011;68459;50.836;19.138;2023-03-23T11:08:58;5.45;;;1.98;;
74974;SDS011;68459;50.836;19.138;2023-03-23T11:12:15;3.63;;;1.80;;
74974;SDS011;68459;50.836;19.138;2023-03-23T11:15:22;3.88;;;2.10;;
74974;SDS011;68459;50.836;19.138;2023-03-23T11:18:35;3.37;;;1.80;;
74974;SDS011;68459;50.836;19.138;2023-03-23T11:21:45;4.30;;;1.95;;
74974;SDS011;68459;50.836;19.138;2023-03-23T11:24:54;3.80;;;2.15;;
74974;SDS011;68459;50.836;19.138;2023-03-23T11:28:02;5.68;;;2.30;;
74974;SDS011;68459;50.836;19.138;2023-03-23T11:31:05;4.87;;;2.33;;
74974;SDS011;68459;50.836;19.138;2023-03-23T11:34:12;5.13;;;1.90;;
74974;SDS011;68459;50.836;19.138;2023-03-23T11:37:19;2.85;;;1.52;;
74974;SDS011;68459;50.836;19.138;2023-03-23T11:40:42;4.13;;;1.95;;
74974;SDS011;68459;50.836;19.138;2023-03-23T11:43:51;4.00;;;1.80;;
74974;SDS011;68459;50.836;19.138;2023-03-23T11:46:58;3.93;;;1.90;;
74974;SDS011;68459;50.836;19.138;2023-03-23T11:50:10;5.60;;;1.80;;
74974;SDS011;68459;50.836;19.138;2023-03-23T11:53:22;4.57;;;2.33;;
74974;SDS011;68459;50.836;19.138;2023-03-23T11:56:38;3.30;;;1.75;;
74974;SDS011;68459;50.836;19.138;2023-03-23T11:59:44;2.93;;;1.60;;
74974;SDS011;68459;50.836;19.138;2023-03-23T12:06:46;3.00;;;1.75;;
74974;SDS011;68459;50.836;19.138;2023-03-23T12:10:01;3.38;;;1.65;;
74974;SDS011;68459;50.836;19.138;2023-03-23T12:13:28;3.40;;;2.00;;
74974;SDS011;68459;50.836;19.138;2023-03-23T12:16:56;4.47;;;2.17;;
74974;SDS011;68459;50.836;19.138;2023-03-23T12:20:20;3.10;;;1.55;;
74974;SDS011;68459;50.836;19.138;2023-03-23T12:23:38;4.95;;;1.67;;
74974;SDS011;68459;50.836;19.138;2023-03-23T12:26:56;5.30;;;2.10;;
74974;SDS011;68459;50.836;19.138;2023-03-23T12:30:13;3.28;;;1.70;;
74974;SDS011;68459;50.836;19.138;2023-03-23T12:33:35;2.60;;;1.33;;
74974;SDS011;68459;50.836;19.138;2023-03-23T12:36:58;4.60;;;1.70;;
74974;SDS011;68459;50.836;19.138;2023-03-23T12:40:21;5.13;;;1.70;;
74974;SDS011;68459;50.836;19.138;2023-03-23T12:43:43;4.00;;;1.77;;
74974;SDS011;68459;50.836;19.138;2023-03-23T12:47:06;3.35;;;1.65;;
74974;SDS011;68459;50.836;19.138;2023-03-23T12:50:28;5.68;;;1.52;;
74974;SDS011;68459;50.836;19.138;2023-03-23T12:53:38;5.77;;;1.10;;
74974;SDS011;68459;50.836;19.138;2023-03-23T12:56:54;2.83;;;1.55;;
74974;SDS011;68459;50.836;19.138;2023-03-23T13:00:12;3.28;;;1.42;;
74974;SDS011;68459;50.836;19.138;2023-03-23T13:03:25;2.47;;;1.30;;
74974;SDS011;68459;50.836;19.138;2023-03-23T13:06:37;3.00;;;1.70;;
74974;SDS011;68459;50.836;19.138;2023-03-23T13:09:45;3.42;;;1.48;;
74974;SDS011;68459;50.836;19.138;2023-03-23T13:12:57;2.63;;;1.38;;
74974;SDS011;68459;50.836;19.138;2023-03-23T13:16:02;2.50;;;1.50;;
74974;SDS011;68459;50.836;19.138;2023-03-23T13:19:16;3.07;;;1.27;;
74974;SDS011;68459;50.836;19.138;2023-03-23T13:22:31;2.90;;;1.42;;
74974;SDS011;68459;50.836;19.138;2023-03-23T13:25:49;2.47;;;1.15;;
74974;SDS011;68459;50.836;19.138;2023-03-23T13:29:00;3.00;;;1.30;;
74974;SDS011;68459;50.836;19.138;2023-03-23T13:32:12;3.88;;;1.40;;
74974;SDS011;68459;50.836;19.138;2023-03-23T13:35:20;2.85;;;1.42;;
74974;SDS011;68459;50.836;19.138;2023-03-23T13:38:24;3.35;;;1.40;;
74974;SDS011;68459;50.836;19.138;2023-03-23T13:41:30;2.42;;;1.17;;
74974;SDS011;68459;50.836;19.138;2023-03-23T13:44:43;3.13;;;1.73;;
74974;SDS011;68459;50.836;19.138;2023-03-23T13:48:18;3.53;;;1.75;;
74974;SDS011;68459;50.836;19.138;2023-03-23T13:51:26;5.18;;;1.80;;
74974;SDS011;68459;50.836;19.138;2023-03-23T13:54:42;3.53;;;2.15;;
74974;SDS011;68459;50.836;19.138;2023-03-23T13:57:49;3.60;;;2.10;;
74974;SDS011;68459;50.836;19.138;2023-03-23T14:01:11;4.80;;;2.00;;
74974;SDS011;68459;50.836;19.138;2023-03-23T14:04:19;5.07;;;2.55;;
74974;SDS011;68459;50.836;19.138;2023-03-23T14:07:23;4.60;;;1.50;;
74974;SDS011;68459;50.836;19.138;2023-03-23T14:10:33;4.18;;;1.48;;
74974;SDS011;68459;50.836;19.138;2023-03-23T14:13:41;3.67;;;1.55;;
74974;SDS011;68459;50.836;19.138;2023-03-23T14:16:50;3.55;;;1.60;;
74974;SDS011;68459;50.836;19.138;2023-03-23T14:19:55;4.10;;;1.70;;
74974;SDS011;68459;50.836;19.138;2023-03-23T14:23:15;3.87;;;1.47;;
74974;SDS011;68459;50.836;19.138;2023-03-23T14:26:20;4.78;;;1.63;;
74974;SDS011;68459;50.836;19.138;2023-03-23T14:29:23;2.63;;;1.30;;
74974;SDS011;68459;50.836;19.138;2023-03-23T14:32:27;2.30;;;1.20;;
74974;SDS011;68459;50.836;19.138;2023-03-23T14:35:34;4.93;;;1.33;;
74974;SDS011;68459;50.836;19.138;2023-03-23T14:38:41;5.55;;;1.23;;
74974;SDS011;68459;50.836;19.138;2023-03-23T14:41:44;3.03;;;1.02;;
74974;SDS011;68459;50.836;19.138;2023-03-23T14:44:47;2.75;;;1.20;;
74974;SDS011;68459;50.836;19.138;2023-03-23T14:47:55;7.80;;;4.50;;
74974;SDS011;68459;50.836;19.138;2023-03-23T14:51:03;3.08;;;1.20;;
74974;SDS011;68459;50.836;19.138;2023-03-23T14:54:08;4.00;;;1.10;;
74974;SDS011;68459;50.836;19.138;2023-03-23T14:57:13;3.15;;;1.17;;
74974;SDS011;68459;50.836;19.138;2023-03-23T15:00:19;3.20;;;1.00;;
74974;SDS011;68459;50.836;19.138;2023-03-23T15:03:27;2.90;;;0.88;;
74974;SDS011;68459;50.836;19.138;2023-03-23T15:06:42;4.55;;;1.10;;
74974;SDS011;68459;50.836;19.138;2023-03-23T15:09:48;2.92;;;1.20;;
74974;SDS011;68459;50.836;19.138;2023-03-23T15:12:52;1.80;;;0.93;;
74974;SDS011;68459;50.836;19.138;2023-03-23T15:16:02;2.35;;;1.00;;
74974;SDS011;68459;50.836;19.138;2023-03-23T15:19:12;2.08;;;0.90;;
74974;SDS011;68459;50.836;19.138;2023-03-23T15:22:23;2.17;;;0.95;;
74974;SDS011;68459;50.836;19.138;2023-03-23T15:25:30;3.70;;;1.10;;
74974;SDS011;68459;50.836;19.138;2023-03-23T15:28:40;2.20;;;1.00;;
74974;SDS011;68459;50.836;19.138;2023-03-23T15:31:44;2.92;;;1.20;;
74974;SDS011;68459;50.836;19.138;2023-03-23T15:34:50;2.70;;;1.00;;
74974;SDS011;68459;50.836;19.138;2023-03-23T15:37:57;3.77;;;1.70;;
74974;SDS011;68459;50.836;19.138;2023-03-23T15:41:04;3.15;;;1.10;;
74974;SDS011;68459;50.836;19.138;2023-03-23T15:44:26;3.97;;;1.10;;
74974;SDS011;68459;50.836;19.138;2023-03-23T15:47:36;2.85;;;1.15;;
74974;SDS011;68459;50.836;19.138;2023-03-23T15:50:48;3.03;;;1.23;;
74974;SDS011;68459;50.836;19.138;2023-03-23T15:53:53;2.25;;;1.02;;
74974;SDS011;68459;50.836;19.138;2023-03-23T15:56:57;3.50;;;1.15;;
74974;SDS011;68459;50.836;19.138;2023-03-23T16:00:00;5.65;;;1.60;;
74974;SDS011;68459;50.836;19.138;2023-03-23T16:03:13;4.53;;;1.58;;
74974;SDS011;68459;50.836;19.138;2023-03-23T16:06:25;3.25;;;1.45;;
74974;SDS011;68459;50.836;19.138;2023-03-23T16:09:32;3.25;;;1.60;;
74974;SDS011;68459;50.836;19.138;2023-03-23T16:12:36;3.20;;;1.60;;
74974;SDS011;68459;50.836;19.138;2023-03-23T16:15:40;3.17;;;1.30;;
74974;SDS011;68459;50.836;19.138;2023-03-23T16:18:45;4.15;;;1.52;;
74974;SDS011;68459;50.836;19.138;2023-03-23T16:21:50;3.63;;;1.60;;
74974;SDS011;68459;50.836;19.138;2023-03-23T16:24:54;2.67;;;1.33;;
74974;SDS011;68459;50.836;19.138;2023-03-23T16:27:58;4.00;;;1.48;;
74974;SDS011;68459;50.836;19.138;2023-03-23T16:31:02;4.85;;;1.67;;
74974;SDS011;68459;50.836;19.138;2023-03-23T16:34:07;5.38;;;1.90;;
74974;SDS011;68459;50.836;19.138;2023-03-23T16:37:12;3.73;;;1.90;;
74974;SDS011;68459;50.836;19.138;2023-03-23T16:40:18;4.63;;;2.13;;
74974;SDS011;68459;50.836;19.138;2023-03-23T16:43:24;5.82;;;1.83;;
74974;SDS011;68459;50.836;19.138;2023-03-23T16:46:28;9.00;;;3.20;;
74974;SDS011;68459;50.836;19.138;2023-03-23T16:49:33;7.30;;;2.50;;
74974;SDS011;68459;50.836;19.138;2023-03-23T16:52:39;7.07;;;2.72;;
74974;SDS011;68459;50.836;19.138;2023-03-23T16:55:48;7.63;;;2.92;;
74974;SDS011;68459;50.836;19.138;2023-03-23T16:58:58;7.20;;;3.07;;
74974;SDS011;68459;50.836;19.138;2023-03-23T17:02:02;8.53;;;3.00;;
74974;SDS011;68459;50.836;19.138;2023-03-23T17:05:07;9.18;;;3.50;;
74974;SDS011;68459;50.836;19.138;2023-03-23T17:08:13;11.75;;;4.85;;
74974;SDS011;68459;50.836;19.138;2023-03-23T17:11:18;8.57;;;4.27;;
74974;SDS011;68459;50.836;19.138;2023-03-23T17:14:21;10.10;;;5.00;;
74974;SDS011;68459;50.836;19.138;2023-03-23T17:17:26;7.45;;;4.03;;
74974;SDS011;68459;50.836;19.138;2023-03-23T17:20:29;7.93;;;3.60;;
74974;SDS011;68459;50.836;19.138;2023-03-23T17:23:35;7.93;;;3.40;;
74974;SDS011;68459;50.836;19.138;2023-03-23T17:26:39;6.40;;;3.78;;
74974;SDS011;68459;50.836;19.138;2023-03-23T17:29:44;5.85;;;3.28;;
74974;SDS011;68459;50.836;19.138;2023-03-23T17:32:48;9.40;;;3.92;;
74974;SDS011;68459;50.836;19.138;2023-03-23T17:35:52;9.68;;;3.97;;
74974;SDS011;68459;50.836;19.138;2023-03-23T17:38:57;9.40;;;4.20;;
74974;SDS011;68459;50.836;19.138;2023-03-23T17:42:03;10.53;;;4.50;;
74974;SDS011;68459;50.836;19.138;2023-03-23T17:45:07;10.30;;;4.68;;
74974;SDS011;68459;50.836;19.138;2023-03-23T17:48:12;9.90;;;5.13;;
74974;SDS011;68459;50.836;19.138;2023-03-23T17:51:16;14.93;;;7.13;;
74974;SDS011;68459;50.836;19.138;2023-03-23T17:54:22;21.40;;;11.07;;
74974;SDS011;68459;50.836;19.138;2023-03-23T17:57:26;12.07;;;6.65;;
74974;SDS011;68459;50.836;19.138;2023-03-23T18:00:30;13.77;;;7.20;;
74974;SDS011;68459;50.836;19.138;2023-03-23T18:03:34;15.90;;;6.28;;
74974;SDS011;68459;50.836;19.138;2023-03-23T18:06:38;14.13;;;7.10;;
74974;SDS011;68459;50.836;19.138;2023-03-23T18:09:43;15.05;;;7.18;;
74974;SDS011;68459;50.836;19.138;2023-03-23T18:12:47;12.50;;;6.73;;
74974;SDS011;68459;50.836;19.138;2023-03-23T18:15:52;12.80;;;6.32;;
74974;SDS011;68459;50.836;19.138;2023-03-23T18:18:57;11.27;;;6.03;;
74974;SDS011;68459;50.836;19.138;2023-03-23T18:22:01;14.23;;;7.10;;
74974;SDS011;68459;50.836;19.138;2023-03-23T18:25:06;13.77;;;7.15;;
74974;SDS011;68459;50.836;19.138;2023-03-23T18:28:11;14.25;;;7.60;;
74974;SDS011;68459;50.836;19.138;2023-03-23T18:31:15;14.25;;;7.07;;
74974;SDS011;68459;50.836;19.138;2023-03-23T18:34:21;12.73;;;6.68;;
74974;SDS011;68459;50.836;19.138;2023-03-23T18:42:03;19.88;;;9.88;;
74974;SDS011;68459;50.836;19.138;2023-03-23T18:45:08;35.27;;;15.60;;
74974;SDS011;68459;50.836;19.138;2023-03-23T18:48:12;31.77;;;16.40;;